createdAt,value
2023-05-24T00:01:12.485Z,15.38
2023-05-24T00:03:39.690Z,15.35
2023-05-24T00:06:06.913Z,15.31
2023-05-24T00:08:34.284Z,15.31
2023-05-24T00:11:00.993Z,15.31
2023-05-24T00:13:28.403Z,15.31
2023-05-24T00:15:55.218Z,15.31
2023-05-24T00:18:21.971Z,15.29
2023-05-24T00:20:48.677Z,15.27
2023-05-24T00:23:15.651Z,15.24
2023-05-24T00:25:42.334Z,15.21
2023-05-24T00:28:08.919Z,15.16
2023-05-24T00:30:38.174Z,15.11
2023-05-24T00:33:05.005Z,15.07
2023-05-24T00:35:31.897Z,15.03
2023-05-24T00:37:58.869Z,15.00
2023-05-24T00:40:25.687Z,14.96
2023-05-24T00:42:52.864Z,14.92
2023-05-24T00:45:19.893Z,14.90
2023-05-24T00:47:47.221Z,14.88
2023-05-24T00:50:16.758Z,14.87
2023-05-24T00:52:43.444Z,14.85
2023-05-24T00:55:11.654Z,14.83
2023-05-24T00:57:38.507Z,14.82
2023-05-24T01:00:09.021Z,14.80
2023-05-24T01:02:37.666Z,14.79
2023-05-24T01:05:05.633Z,14.77
2023-05-24T01:07:41.980Z,14.75
2023-05-24T01:10:25.555Z,14.74
2023-05-24T01:13:15.932Z,14.72
2023-05-24T01:15:45.396Z,14.70
2023-05-24T01:18:29.795Z,14.67
2023-05-24T01:21:11.831Z,14.65
2023-05-24T01:24:22.158Z,14.62
2023-05-24T01:27:07.909Z,14.59
2023-05-24T01:29:35.851Z,14.59
2023-05-24T01:32:02.736Z,14.58
2023-05-24T01:34:29.956Z,14.58
2023-05-24T01:36:56.888Z,14.59
2023-05-24T01:39:27.016Z,14.59
2023-05-24T01:42:06.038Z,14.61
2023-05-24T01:44:43.234Z,14.63
2023-05-24T01:48:10.823Z,14.68
2023-05-24T01:50:40.950Z,14.72
2023-05-24T01:53:08.795Z,14.75
2023-05-24T01:55:35.328Z,14.79
2023-05-24T01:58:03.326Z,14.81
2023-05-24T02:00:30.721Z,14.84
2023-05-24T02:02:57.773Z,14.87
2023-05-24T02:05:24.955Z,14.88
2023-05-24T02:07:52.065Z,14.88
2023-05-24T02:10:20.599Z,14.90
2023-05-24T02:12:47.290Z,14.91
2023-05-24T02:15:14.268Z,14.91
2023-05-24T02:17:42.391Z,14.91
2023-05-24T02:20:10.493Z,14.90
2023-05-24T02:22:37.878Z,14.89
2023-05-24T02:25:05.444Z,14.86
2023-05-24T02:27:32.566Z,14.81
2023-05-24T02:29:59.651Z,14.75
2023-05-24T02:32:26.331Z,14.72
2023-05-24T02:34:53.266Z,14.72
2023-05-24T02:37:20.431Z,14.70
2023-05-24T02:39:47.283Z,14.69
2023-05-24T02:42:14.049Z,14.68
2023-05-24T02:44:42.402Z,14.67
2023-05-24T02:47:09.445Z,14.66
2023-05-24T02:49:36.807Z,14.66
2023-05-24T02:52:04.141Z,14.65
2023-05-24T02:54:30.907Z,14.65
2023-05-24T02:56:58.136Z,14.64
2023-05-24T02:59:25.307Z,14.61
2023-05-24T03:01:52.185Z,14.61
2023-05-24T03:04:18.960Z,14.61
2023-05-24T03:06:46.726Z,14.62
2023-05-24T03:09:15.843Z,14.64
2023-05-24T03:11:42.628Z,14.66
2023-05-24T03:14:10.683Z,14.68
2023-05-24T03:16:38.971Z,14.70
2023-05-24T03:19:07.663Z,14.71
2023-05-24T03:21:36.586Z,14.71
2023-05-24T03:24:03.541Z,14.71
2023-05-24T03:26:31.294Z,14.71
2023-05-24T03:28:58.787Z,14.72
2023-05-24T03:31:30.409Z,14.74
2023-05-24T03:33:57.595Z,14.78
2023-05-24T03:36:25.709Z,14.84
2023-05-24T03:38:52.469Z,14.91
2023-05-24T03:41:19.858Z,14.98
2023-05-24T03:43:46.664Z,15.06
2023-05-24T03:46:16.996Z,15.15
2023-05-24T03:48:44.245Z,15.22
2023-05-24T03:51:11.013Z,15.31
2023-05-24T03:53:37.592Z,15.40
2023-05-24T03:56:04.215Z,15.50
2023-05-24T03:58:32.425Z,15.60
2023-05-24T04:00:59.577Z,15.69
2023-05-24T04:03:27.223Z,15.78
2023-05-24T04:05:55.310Z,15.90
2023-05-24T04:08:22.586Z,16.02
2023-05-24T04:10:49.422Z,16.14
2023-05-24T04:13:16.209Z,16.24
2023-05-24T04:15:43.084Z,16.36
2023-05-24T04:18:11.444Z,16.48
2023-05-24T04:20:39.352Z,16.61
2023-05-24T04:23:06.446Z,16.75
2023-05-24T04:25:33.773Z,16.89
2023-05-24T04:28:02.006Z,17.05
2023-05-24T04:30:31.021Z,17.21
2023-05-24T04:32:58.918Z,17.40
2023-05-24T04:35:28.458Z,17.58
2023-05-24T04:37:55.211Z,17.78
2023-05-24T04:40:22.548Z,17.98
2023-05-24T04:42:50.028Z,18.21
2023-05-24T04:45:16.908Z,18.45
2023-05-24T04:47:43.960Z,18.69
2023-05-24T04:50:10.756Z,18.98
2023-05-24T04:52:37.716Z,19.26
2023-05-24T04:55:05.155Z,19.56
2023-05-24T04:57:32.036Z,19.86
2023-05-24T04:59:59.007Z,20.18
2023-05-24T05:02:26.752Z,20.51
2023-05-24T05:04:53.482Z,20.85
2023-05-24T05:07:21.987Z,21.18
2023-05-24T05:09:49.331Z,21.52
2023-05-24T05:12:15.928Z,21.84
2023-05-24T05:14:42.851Z,22.17
2023-05-24T05:17:09.588Z,22.51
2023-05-24T05:19:36.841Z,22.85
2023-05-24T05:22:04.533Z,23.19
2023-05-24T05:24:32.578Z,23.60
2023-05-24T05:26:59.115Z,24.01
2023-05-24T05:29:25.816Z,24.37
2023-05-24T05:31:52.711Z,24.75
2023-05-24T05:34:20.644Z,25.02
2023-05-24T05:36:47.587Z,25.02
2023-05-24T05:39:14.225Z,24.85
2023-05-24T05:41:45.462Z,24.64
2023-05-24T05:44:15.015Z,24.44
2023-05-24T05:46:43.409Z,24.29
2023-05-24T05:49:10.110Z,24.15
2023-05-24T05:51:38.265Z,24.06
2023-05-24T05:54:05.460Z,24.05
2023-05-24T05:56:32.509Z,24.08
2023-05-24T05:58:59.575Z,24.12
2023-05-24T06:01:26.584Z,24.14
2023-05-24T06:03:53.578Z,24.41
2023-05-24T06:06:21.027Z,24.81
2023-05-24T06:08:47.746Z,25.09
2023-05-24T06:11:14.586Z,25.27
2023-05-24T06:13:41.446Z,25.42
2023-05-24T06:16:08.364Z,25.85
2023-05-24T06:18:36.123Z,26.56
2023-05-24T06:21:02.768Z,27.38
2023-05-24T06:23:30.203Z,28.17
2023-05-24T06:25:57.365Z,28.88
2023-05-24T06:28:24.116Z,29.54
2023-05-24T06:30:51.315Z,30.15
2023-05-24T06:33:18.603Z,30.56
2023-05-24T06:35:45.701Z,30.91
2023-05-24T06:38:14.260Z,31.30
2023-05-24T06:40:41.204Z,31.57
2023-05-24T06:43:08.132Z,31.88
2023-05-24T06:45:36.856Z,32.24
2023-05-24T06:48:04.520Z,32.54
2023-05-24T06:50:31.470Z,32.76
2023-05-24T06:52:58.050Z,32.93
2023-05-24T06:55:25.171Z,33.14
2023-05-24T06:57:52.174Z,33.45
2023-05-24T07:00:19.944Z,33.75
2023-05-24T07:02:46.787Z,34.00
2023-05-24T07:05:13.911Z,34.27
2023-05-24T07:07:42.394Z,34.50
2023-05-24T07:10:10.765Z,34.61
2023-05-24T07:12:38.297Z,34.73
2023-05-24T07:15:06.600Z,34.58
2023-05-24T07:17:33.697Z,34.56
2023-05-24T07:20:01.229Z,34.86
2023-05-24T07:22:29.600Z,35.24
2023-05-24T07:24:56.177Z,35.51
2023-05-24T07:27:23.236Z,35.70
2023-05-24T07:29:50.187Z,35.89
2023-05-24T07:32:17.335Z,36.17
2023-05-24T07:34:44.360Z,36.33
2023-05-24T07:37:11.296Z,36.45
2023-05-24T07:39:38.621Z,36.52
2023-05-24T07:42:06.036Z,36.48
2023-05-24T07:44:32.971Z,36.50
2023-05-24T07:47:01.940Z,36.42
2023-05-24T07:49:29.059Z,36.40
2023-05-24T07:51:59.692Z,36.41
2023-05-24T07:54:26.551Z,36.31
2023-05-24T07:56:53.272Z,36.20
2023-05-24T07:59:20.429Z,36.35
2023-05-24T08:01:47.181Z,36.80
2023-05-24T08:04:13.850Z,37.02
2023-05-24T08:06:41.186Z,37.26
2023-05-24T08:09:08.354Z,37.61
2023-05-24T08:11:35.460Z,37.71
2023-05-24T08:14:03.122Z,37.39
2023-05-24T08:16:31.145Z,36.91
2023-05-24T08:18:58.181Z,36.23
2023-05-24T08:21:25.706Z,35.60
2023-05-24T08:23:52.611Z,35.52
2023-05-24T08:26:20.567Z,35.88
2023-05-24T08:28:47.672Z,36.11
2023-05-24T08:31:14.309Z,36.30
2023-05-24T08:33:42.402Z,36.11
2023-05-24T08:36:10.259Z,35.51
2023-05-24T08:38:36.989Z,35.16
2023-05-24T08:41:08.000Z,34.62
2023-05-24T08:43:35.215Z,33.93
2023-05-24T08:46:03.193Z,33.28
2023-05-24T08:48:30.746Z,32.72
2023-05-24T08:50:57.854Z,32.37
2023-05-24T08:53:24.613Z,32.04
2023-05-24T08:55:55.350Z,31.66
2023-05-24T08:58:22.360Z,31.15
2023-05-24T09:00:49.288Z,30.78
2023-05-24T09:03:16.477Z,30.63
2023-05-24T09:05:44.087Z,30.63
2023-05-24T09:08:10.970Z,30.91
2023-05-24T09:10:53.201Z,31.61
2023-05-24T09:13:22.961Z,32.66
2023-05-24T09:15:49.823Z,33.69
2023-05-24T09:18:17.668Z,34.34
2023-05-24T09:20:44.711Z,34.69
2023-05-24T09:23:12.340Z,34.79
2023-05-24T09:25:43.723Z,34.51
2023-05-24T09:28:12.856Z,34.11
2023-05-24T09:30:43.350Z,33.67
2023-05-24T09:33:11.850Z,33.13
2023-05-24T09:35:43.429Z,32.55
2023-05-24T09:38:19.985Z,31.95
2023-05-24T09:40:46.646Z,31.44
2023-05-24T09:43:14.295Z,31.06
2023-05-24T09:45:48.720Z,30.73
2023-05-24T09:48:16.746Z,30.46
2023-05-24T09:50:47.559Z,30.25
2023-05-24T09:53:18.835Z,30.05
2023-05-24T09:55:45.810Z,29.91
2023-05-24T09:58:13.446Z,29.83
2023-05-24T10:00:41.175Z,29.75
2023-05-24T10:03:13.569Z,29.74
2023-05-24T10:05:44.867Z,29.70
2023-05-24T10:08:11.944Z,29.64
2023-05-24T10:10:39.256Z,29.51
2023-05-24T10:13:07.138Z,29.45
2023-05-24T10:15:33.932Z,29.42
2023-05-24T10:18:02.117Z,29.38
2023-05-24T10:20:29.477Z,29.34
2023-05-24T10:23:02.587Z,29.32
2023-05-24T10:25:29.412Z,29.38
2023-05-24T10:28:07.345Z,29.48
2023-05-24T10:30:40.443Z,29.55
2023-05-24T10:33:07.880Z,29.51
2023-05-24T10:35:37.672Z,29.44
2023-05-24T10:38:06.854Z,29.45
2023-05-24T10:40:33.763Z,29.49
2023-05-24T10:43:03.967Z,29.45
2023-05-24T10:45:35.212Z,29.31
2023-05-24T10:48:28.463Z,29.10
2023-05-24T10:50:55.722Z,28.94
2023-05-24T10:53:23.164Z,28.80
2023-05-24T10:55:59.808Z,28.64
2023-05-24T10:58:58.041Z,28.45
2023-05-24T11:01:31.887Z,28.26
2023-05-24T11:04:15.107Z,28.09
2023-05-24T11:06:55.201Z,27.88
2023-05-24T11:09:24.048Z,27.76
2023-05-24T11:11:54.570Z,27.68
2023-05-24T11:14:28.133Z,27.55
2023-05-24T11:16:55.550Z,27.36
2023-05-24T11:19:33.731Z,27.32
2023-05-24T11:22:06.581Z,27.39
2023-05-24T11:24:33.663Z,27.45
2023-05-24T11:27:04.154Z,27.36
2023-05-24T11:29:33.927Z,27.18
2023-05-24T11:32:04.248Z,27.05
2023-05-24T11:34:31.665Z,27.01
2023-05-24T11:36:59.657Z,26.94
2023-05-24T11:39:30.905Z,26.91
2023-05-24T11:41:58.566Z,26.98
2023-05-24T11:44:27.407Z,26.93
2023-05-24T11:47:00.811Z,26.98
2023-05-24T11:49:27.678Z,27.28
2023-05-24T11:51:56.189Z,27.61
2023-05-24T11:54:23.807Z,27.97
2023-05-24T11:56:52.171Z,28.26
2023-05-24T11:59:23.714Z,28.39
2023-05-24T12:01:57.011Z,28.49
2023-05-24T12:04:23.933Z,28.52
2023-05-24T12:06:50.591Z,28.46
2023-05-24T12:09:18.307Z,28.32
2023-05-24T12:11:49.570Z,28.14
2023-05-24T12:14:22.320Z,27.88
2023-05-24T12:16:49.078Z,27.58
2023-05-24T12:19:31.389Z,27.38
2023-05-24T12:22:00.307Z,27.22
2023-05-24T12:24:27.178Z,27.19
2023-05-24T12:26:58.058Z,27.20
2023-05-24T12:29:25.338Z,27.14
2023-05-24T12:31:52.119Z,27.15
2023-05-24T12:34:19.306Z,27.32
2023-05-24T12:36:47.428Z,27.60
2023-05-24T12:39:18.890Z,27.97
2023-05-24T12:41:50.293Z,28.35
2023-05-24T12:44:17.491Z,28.68
2023-05-24T12:46:44.114Z,29.00
2023-05-24T12:49:10.883Z,29.24
2023-05-24T12:51:37.660Z,29.39
2023-05-24T12:54:04.767Z,29.41
2023-05-24T12:56:34.666Z,29.44
2023-05-24T12:59:01.420Z,29.52
2023-05-24T13:01:29.945Z,29.51
2023-05-24T13:03:56.804Z,29.47
2023-05-24T13:06:24.366Z,29.49
2023-05-24T13:08:51.837Z,29.39
2023-05-24T13:11:18.740Z,29.29
2023-05-24T13:13:45.732Z,29.11
2023-05-24T13:16:12.452Z,28.96
2023-05-24T13:18:39.529Z,28.92
2023-05-24T13:21:06.605Z,29.01
2023-05-24T13:23:35.583Z,29.11
2023-05-24T13:26:02.372Z,29.18
2023-05-24T13:28:30.075Z,29.20
2023-05-24T13:30:56.890Z,29.22
2023-05-24T13:33:23.674Z,29.19
2023-05-24T13:35:50.532Z,29.14
2023-05-24T13:38:17.858Z,29.16
2023-05-24T13:40:45.348Z,29.18
2023-05-24T13:43:12.565Z,29.14
2023-05-24T13:45:39.337Z,29.03
2023-05-24T13:48:06.188Z,28.88
2023-05-24T13:50:34.107Z,28.84
2023-05-24T13:53:02.179Z,28.85
2023-05-24T13:55:29.964Z,28.83
2023-05-24T13:57:56.867Z,28.77
2023-05-24T14:00:24.134Z,28.71
2023-05-24T14:02:51.203Z,28.56
2023-05-24T14:05:27.501Z,28.36
2023-05-24T14:07:58.231Z,28.12
2023-05-24T14:10:27.033Z,27.91
2023-05-24T14:13:22.750Z,27.69
2023-05-24T14:15:49.225Z,27.41
2023-05-24T14:18:16.262Z,27.22
2023-05-24T14:20:43.594Z,27.08
2023-05-24T14:23:10.794Z,26.98
2023-05-24T14:25:38.129Z,26.88
2023-05-24T14:28:05.889Z,26.87
2023-05-24T14:30:33.110Z,26.91
2023-05-24T14:33:02.722Z,26.98
2023-05-24T14:35:29.656Z,27.03
2023-05-24T14:37:56.439Z,27.08
2023-05-24T14:40:23.372Z,27.13
2023-05-24T14:42:50.040Z,27.15
2023-05-24T14:45:16.757Z,27.14
2023-05-24T14:47:43.641Z,27.12
2023-05-24T14:50:11.589Z,27.10
2023-05-24T14:52:39.046Z,27.03
2023-05-24T14:55:06.890Z,26.90
2023-05-24T14:57:33.736Z,26.74
2023-05-24T15:00:00.901Z,26.55
2023-05-24T15:02:27.732Z,26.35
2023-05-24T15:04:54.792Z,26.15
2023-05-24T15:07:22.358Z,25.95
2023-05-24T15:09:49.246Z,25.76
2023-05-24T15:12:15.991Z,25.58
2023-05-24T15:14:42.803Z,25.41
2023-05-24T15:17:10.687Z,25.32
2023-05-24T15:19:37.738Z,25.25
2023-05-24T15:22:04.644Z,25.20
2023-05-24T15:24:31.568Z,25.15
2023-05-24T15:26:58.421Z,25.10
2023-05-24T15:29:25.241Z,25.05
2023-05-24T15:31:52.235Z,24.96
2023-05-24T15:34:19.676Z,24.81
2023-05-24T15:36:47.717Z,24.67
2023-05-24T15:39:14.328Z,24.54
2023-05-24T15:41:41.320Z,24.42
2023-05-24T15:44:08.292Z,24.29
2023-05-24T15:46:36.297Z,24.20
2023-05-24T15:49:03.209Z,24.13
2023-05-24T15:53:59.914Z,23.98
2023-05-24T15:56:27.186Z,23.90
2023-05-24T15:58:54.011Z,23.84
2023-05-24T16:01:21.344Z,23.76
2023-05-24T16:03:50.338Z,23.65
2023-05-24T16:06:17.175Z,23.55
2023-05-24T16:08:44.366Z,23.43
2023-05-24T16:11:11.110Z,23.32
2023-05-24T16:13:38.770Z,23.21
2023-05-24T16:16:05.928Z,23.12
2023-05-24T16:18:34.882Z,23.04
2023-05-24T16:21:02.086Z,22.97
2023-05-24T16:23:29.127Z,22.91
2023-05-24T16:25:55.718Z,22.81
2023-05-24T16:28:24.424Z,22.69
2023-05-24T16:30:54.967Z,22.61
2023-05-24T16:33:23.109Z,22.54
2023-05-24T16:35:55.119Z,22.45
2023-05-24T16:38:24.180Z,22.39
2023-05-24T16:40:51.631Z,22.32
2023-05-24T16:43:18.370Z,22.25
2023-05-24T16:45:45.207Z,22.18
2023-05-24T16:48:12.835Z,22.12
2023-05-24T16:50:40.542Z,22.05
2023-05-24T16:53:07.475Z,21.98
2023-05-24T16:55:34.639Z,21.89
2023-05-24T16:58:01.775Z,21.81
2023-05-24T17:00:28.926Z,21.72
2023-05-24T17:02:58.710Z,21.65
2023-05-24T17:05:25.594Z,21.59
2023-05-24T17:07:52.290Z,21.51
2023-05-24T17:10:19.017Z,21.45
2023-05-24T17:12:47.020Z,21.37
2023-05-24T17:15:14.003Z,21.30
2023-05-24T17:17:40.936Z,21.24
2023-05-24T17:20:09.663Z,21.15
2023-05-24T17:22:36.861Z,21.07
2023-05-24T17:25:04.180Z,20.99
2023-05-24T17:27:31.274Z,20.90
2023-05-24T17:29:58.404Z,20.82
2023-05-24T17:32:25.301Z,20.71
2023-05-24T17:34:54.850Z,20.62
2023-05-24T17:37:21.504Z,20.52
2023-05-24T17:39:51.658Z,20.43
2023-05-24T17:42:18.656Z,20.35
2023-05-24T17:44:45.259Z,20.27
2023-05-24T17:47:12.041Z,20.20
2023-05-24T17:49:39.094Z,20.12
2023-05-24T17:52:06.250Z,20.05
2023-05-24T17:54:33.829Z,19.97
2023-05-24T17:57:02.468Z,19.88
2023-05-24T17:59:29.305Z,19.80
2023-05-24T18:01:56.287Z,19.72
2023-05-24T18:04:25.362Z,19.65
2023-05-24T18:06:52.189Z,19.58
2023-05-24T18:09:19.645Z,19.51
2023-05-24T18:11:46.406Z,19.45
2023-05-24T18:14:13.301Z,19.38
2023-05-24T18:16:42.293Z,19.31
2023-05-24T18:19:09.019Z,19.25
2023-05-24T18:21:36.334Z,19.18
2023-05-24T18:24:03.004Z,19.12
2023-05-24T18:26:29.641Z,19.06
2023-05-24T18:28:56.389Z,18.99
2023-05-24T18:31:23.273Z,18.93
2023-05-24T18:33:50.482Z,18.87
2023-05-24T18:36:17.278Z,18.83
2023-05-24T18:38:46.651Z,18.79
2023-05-24T18:41:13.431Z,18.74
2023-05-24T18:43:42.257Z,18.70
2023-05-24T18:46:12.830Z,18.67
2023-05-24T18:48:41.059Z,18.62
2023-05-24T18:51:07.600Z,18.58
2023-05-24T18:53:35.586Z,18.54
2023-05-24T18:56:02.378Z,18.52
2023-05-24T18:58:30.322Z,18.49
2023-05-24T19:00:57.035Z,18.48
2023-05-24T19:03:24.609Z,18.46
2023-05-24T19:05:51.498Z,18.44
2023-05-24T19:08:18.479Z,18.40
2023-05-24T19:10:45.672Z,18.38
2023-05-24T19:13:12.617Z,18.36
2023-05-24T19:15:39.441Z,18.32
2023-05-24T19:18:06.277Z,18.27
2023-05-24T19:20:33.115Z,18.23
2023-05-24T19:22:59.970Z,18.18
2023-05-24T19:25:27.732Z,18.14
2023-05-24T19:27:59.959Z,18.10
2023-05-24T19:30:27.479Z,18.08
2023-05-24T19:32:54.463Z,18.06
2023-05-24T19:35:21.184Z,18.04
2023-05-24T19:37:48.289Z,18.03
2023-05-24T19:40:15.077Z,18.01
2023-05-24T19:42:42.444Z,18.00
2023-05-24T19:45:09.922Z,17.99
2023-05-24T19:47:36.733Z,17.98
2023-05-24T19:50:04.140Z,17.98
2023-05-24T19:52:31.164Z,17.98
2023-05-24T19:54:57.687Z,17.97
2023-05-24T19:57:24.246Z,17.97
2023-05-24T19:59:50.894Z,17.96
2023-05-24T20:02:17.602Z,17.95
2023-05-24T20:04:46.187Z,17.92
2023-05-24T20:07:14.209Z,17.90
2023-05-24T20:09:41.436Z,17.89
2023-05-24T20:12:08.382Z,17.86
2023-05-24T20:14:35.536Z,17.81
2023-05-24T20:17:03.708Z,17.77
2023-05-24T20:19:30.853Z,17.73
2023-05-24T20:21:58.622Z,17.69
2023-05-24T20:24:25.371Z,17.67
2023-05-24T20:26:52.097Z,17.68
2023-05-24T20:29:19.271Z,17.69
2023-05-24T20:31:46.717Z,17.72
2023-05-24T20:34:13.571Z,17.75
2023-05-24T20:36:42.058Z,17.76
2023-05-24T20:39:11.028Z,17.78
2023-05-24T20:41:39.938Z,17.78
2023-05-24T20:44:06.687Z,17.78
2023-05-24T20:46:34.830Z,17.78
2023-05-24T20:49:01.742Z,17.77
2023-05-24T20:51:28.442Z,17.74
2023-05-24T20:53:55.441Z,17.70
2023-05-24T20:56:22.640Z,17.65
2023-05-24T20:58:52.312Z,17.61
2023-05-24T21:01:19.777Z,17.57
2023-05-24T21:03:46.896Z,17.55
2023-05-24T21:06:14.005Z,17.51
2023-05-24T21:08:42.260Z,17.49
2023-05-24T21:11:09.064Z,17.46
2023-05-24T21:13:36.065Z,17.43
2023-05-24T21:16:03.288Z,17.39
2023-05-24T21:18:31.179Z,17.36
2023-05-24T21:20:59.927Z,17.31
2023-05-24T21:23:26.575Z,17.26
2023-05-24T21:25:53.315Z,17.22
2023-05-24T21:28:20.260Z,17.18
2023-05-24T21:30:47.303Z,17.14
2023-05-24T21:33:13.986Z,17.10
2023-05-24T21:35:40.907Z,17.07
2023-05-24T21:38:07.736Z,17.03
2023-05-24T21:40:35.305Z,17.00
2023-05-24T21:43:04.070Z,16.97
2023-05-24T21:45:31.013Z,16.95
2023-05-24T21:47:58.120Z,16.92
2023-05-24T21:50:25.215Z,16.88
2023-05-24T21:52:52.162Z,16.85
2023-05-24T21:55:20.249Z,16.85
2023-05-24T21:57:47.185Z,16.85
2023-05-24T22:00:14.419Z,16.86
2023-05-24T22:02:41.940Z,16.87
2023-05-24T22:05:09.133Z,16.89
2023-05-24T22:07:37.142Z,16.92
2023-05-24T22:10:04.945Z,16.94
2023-05-24T22:12:32.011Z,16.96
2023-05-24T22:15:02.046Z,16.98
2023-05-24T22:17:32.166Z,16.98
2023-05-24T22:20:04.324Z,16.99
2023-05-24T22:22:31.769Z,16.99
2023-05-24T22:25:03.324Z,16.99
2023-05-24T22:27:30.599Z,16.98
2023-05-24T22:29:57.432Z,16.96
2023-05-24T22:32:24.333Z,16.92
2023-05-24T22:34:51.100Z,16.89
2023-05-24T22:37:17.844Z,16.85
2023-05-24T22:39:44.902Z,16.81
2023-05-24T22:42:11.742Z,16.77
2023-05-24T22:44:40.755Z,16.73
2023-05-24T22:47:07.903Z,16.69
2023-05-24T22:49:35.353Z,16.65
2023-05-24T22:52:02.076Z,16.59
2023-05-24T22:54:29.157Z,16.54
2023-05-24T22:56:56.137Z,16.49
2023-05-24T22:59:22.702Z,16.45
2023-05-24T23:01:49.733Z,16.41
2023-05-24T23:04:21.066Z,16.38
2023-05-24T23:06:53.643Z,16.35
2023-05-24T23:09:34.286Z,16.33
2023-05-24T23:12:08.206Z,16.31
2023-05-24T23:14:40.936Z,16.28
2023-05-24T23:17:09.785Z,16.26
2023-05-24T23:19:42.968Z,16.24
2023-05-24T23:22:13.582Z,16.21
2023-05-24T23:24:41.928Z,16.17
2023-05-24T23:27:08.756Z,16.14
2023-05-24T23:29:35.942Z,16.11
2023-05-24T23:32:03.255Z,16.08
2023-05-24T23:34:33.310Z,16.06
2023-05-24T23:37:03.923Z,16.05
2023-05-24T23:39:31.193Z,16.03
2023-05-24T23:41:57.887Z,16.01
2023-05-24T23:44:25.465Z,16.01
2023-05-24T23:46:52.555Z,15.99
2023-05-24T23:49:21.736Z,15.99
2023-05-24T23:51:48.419Z,15.98
2023-05-24T23:54:17.750Z,15.98
2023-05-24T23:56:46.844Z,15.97
2023-05-24T23:59:15.503Z,15.96
